Time;durP1;ratioP1;P1;durP2;ratioP2;P2;SDS_P1;SDS_P2;PMS_P1;PMS_P2;Temp;Humidity;BMP_temperature;BMP_pressure;BME280_temperature;BME280_humidity;BME280_pressure;Samples;Min_cycle;Max_cycle;Signal;HPM_P1;HPM_P2
2021/12/05 00:17:33;;;;;;;7.85;2.28;;;4.90;99.90;;;;;;5056173;28;20191;-67
2021/12/05 00:22:16;;;;;;;9.55;2.08;;;5.00;99.90;;;;;;5056148;28;20193;-67
2021/12/05 00:24:47;;;;;;;6.30;2.30;;;5.00;99.90;;;;;;5055883;28;20211;-68
2021/12/05 00:27:18;;;;;;;6.47;2.60;;;5.00;99.90;;;;;;5055903;28;20216;-67
2021/12/05 00:32:46;;;;;;;7.85;2.28;;;4.90;99.90;;;;;;5055918;28;20190;-68
2021/12/05 00:57:46;;;;;;;3.97;2.25;;;4.60;99.90;;;;;;5054838;28;20185;-68
2021/12/05 01:16:20;;;;;;;8.27;2.33;;;4.80;99.90;;;;;;5054832;28;20191;-68
2021/12/05 01:18:47;;;;;;;11.30;3.35;;;4.80;99.90;;;;;;5055047;28;20739;-67
2021/12/05 01:21:16;;;;;;;5.13;2.20;;;4.80;99.90;;;;;;5053413;28;20201;-67
2021/12/05 01:34:47;;;;;;;4.80;1.55;;;4.80;99.90;;;;;;5054525;28;20623;-68
2021/12/05 01:39:53;;;;;;;3.08;2.05;;;4.80;99.90;;;;;;5054266;28;20204;-68
2021/12/05 01:58:49;;;;;;;5.18;2.13;;;4.90;99.90;;;;;;5054273;28;20193;-67
2021/12/05 02:01:40;;;;;;;18.50;3.30;;;4.80;99.90;;;;;;5054235;28;20196;-68
2021/12/05 02:10:47;;;;;;;3.25;1.88;;;4.40;99.90;;;;;;5052865;28;20189;-68
2021/12/05 02:45:25;;;;;;;6.15;1.80;;;4.00;99.90;;;;;;5053530;28;20195;-68
2021/12/05 02:47:53;;;;;;;5.93;1.65;;;4.00;99.90;;;;;;5051827;28;20207;-68
2021/12/05 02:50:24;;;;;;;4.68;1.90;;;4.00;99.90;;;;;;5053188;28;20711;-68
2021/12/05 02:52:56;;;;;;;3.83;2.03;;;4.00;99.90;;;;;;5053121;28;20663;-69
2021/12/05 02:55:41;;;;;;;4.10;2.30;;;4.00;99.90;;;;;;5053766;28;20201;-68
2021/12/05 03:01:06;;;;;;;6.82;2.60;;;4.00;99.90;;;;;;5053103;28;20528;-69
2021/12/05 03:03:34;;;;;;;7.22;2.08;;;4.00;99.90;;;;;;5053377;28;20185;-69
2021/12/05 03:06:27;;;;;;;4.60;1.83;;;4.10;99.90;;;;;;5051323;28;20215;-68
2021/12/05 03:08:59;;;;;;;3.00;2.10;;;4.00;99.90;;;;;;5052738;28;20196;-69
2021/12/05 03:11:28;;;;;;;5.68;1.85;;;4.00;99.90;;;;;;5053098;28;20192;-68
2021/12/05 03:13:54;;;;;;;5.20;2.20;;;4.00;99.90;;;;;;5053036;28;20618;-68
2021/12/05 03:16:23;;;;;;;4.18;2.42;;;4.10;99.90;;;;;;5053029;28;20209;-68
2021/12/05 03:18:49;;;;;;;5.28;1.90;;;4.00;99.90;;;;;;5053069;28;20211;-68
2021/12/05 03:21:16;;;;;;;5.18;1.83;;;4.00;99.90;;;;;;5054764;28;20211;-68
2021/12/05 03:23:45;;;;;;;6.10;2.08;;;4.00;99.90;;;;;;5057203;28;20246;-69
2021/12/05 03:26:18;;;;;;;3.55;1.40;;;4.00;99.90;;;;;;5056961;28;20277;-69
2021/12/05 03:28:45;;;;;;;6.68;1.60;;;4.00;99.90;;;;;;5057174;28;20247;-69
2021/12/05 03:31:12;;;;;;;8.68;1.65;;;4.00;99.90;;;;;;5056842;28;20215;-69
2021/12/05 03:33:39;;;;;;;8.50;1.70;;;4.00;99.90;;;;;;5056763;28;20201;-69
2021/12/05 03:36:09;;;;;;;8.10;1.95;;;4.00;99.90;;;;;;5057010;28;20204;-69
2021/12/05 03:38:37;;;;;;;4.70;1.73;;;4.00;99.90;;;;;;5056673;28;20204;-68
2021/12/05 03:41:04;;;;;;;4.70;1.77;;;4.00;99.90;;;;;;5056977;28;20200;-69
2021/12/05 03:43:31;;;;;;;4.45;1.83;;;3.90;99.90;;;;;;5056770;28;20204;-69
2021/12/05 03:45:59;;;;;;;4.88;2.08;;;3.90;99.90;;;;;;5056602;28;20579;-69
2021/12/05 03:48:28;;;;;;;5.85;1.73;;;3.80;99.90;;;;;;5056580;28;20208;-69
2021/12/05 03:50:56;;;;;;;3.90;2.00;;;3.80;99.90;;;;;;5056287;28;20235;-69
2021/12/05 03:53:25;;;;;;;6.32;1.50;;;3.90;99.90;;;;;;5056451;28;20282;-68
2021/12/05 03:55:54;;;;;;;5.05;1.73;;;3.90;99.90;;;;;;5056250;28;20262;-69
2021/12/05 03:58:24;;;;;;;3.80;1.45;;;3.90;99.90;;;;;;5056591;28;20205;-69
2021/12/05 04:00:54;;;;;;;2.55;1.83;;;3.90;99.90;;;;;;5054745;28;20208;-68
2021/12/05 04:03:22;;;;;;;6.00;1.65;;;3.90;99.90;;;;;;5056014;28;20201;-68
2021/12/05 04:05:49;;;;;;;3.78;1.50;;;3.90;99.90;;;;;;5054630;28;20204;-68
2021/12/05 04:08:18;;;;;;;5.28;1.30;;;3.90;99.90;;;;;;5056192;28;20624;-68
2021/12/05 04:10:50;;;;;;;2.47;1.48;;;4.00;99.90;;;;;;5056011;28;20200;-68
2021/12/05 04:13:17;;;;;;;11.55;2.47;;;3.90;99.90;;;;;;5056329;28;20324;-68
2021/12/05 04:15:44;;;;;;;5.90;2.00;;;3.90;99.90;;;;;;5055687;28;20864;-68
2021/12/05 04:18:11;;;;;;;6.22;1.73;;;3.90;99.90;;;;;;5056068;28;20250;-68
2021/12/05 04:20:37;;;;;;;8.30;2.15;;;3.80;99.90;;;;;;5056404;28;20204;-68
2021/12/05 04:23:04;;;;;;;8.98;1.90;;;3.80;99.90;;;;;;5056026;28;20204;-69
2021/12/05 04:25:35;;;;;;;5.15;2.35;;;3.80;99.90;;;;;;5055733;28;20551;-69
2021/12/05 04:28:03;;;;;;;5.72;1.70;;;3.70;99.90;;;;;;5055889;28;20213;-68
2021/12/05 04:30:30;;;;;;;5.30;1.50;;;3.60;99.90;;;;;;5055842;28;20207;-68
2021/12/05 04:32:57;;;;;;;7.15;2.00;;;3.60;99.90;;;;;;5054592;28;20200;-68
2021/12/05 04:35:24;;;;;;;3.70;1.45;;;3.60;99.90;;;;;;5055324;28;20208;-68
2021/12/05 04:37:51;;;;;;;12.80;4.22;;;3.70;99.90;;;;;;5055312;28;20246;-68
2021/12/05 04:40:18;;;;;;;6.85;2.05;;;3.70;99.90;;;;;;5055670;28;20205;-69
2021/12/05 04:42:45;;;;;;;2.70;1.83;;;3.70;99.90;;;;;;5055755;28;20204;-69
2021/12/05 04:45:19;;;;;;;6.25;1.98;;;3.70;99.90;;;;;;5055297;28;20216;-68
2021/12/05 04:47:46;;;;;;;6.25;2.30;;;3.60;99.90;;;;;;5055212;28;20585;-68
2021/12/05 04:50:13;;;;;;;6.05;2.08;;;3.60;99.90;;;;;;5054820;28;20228;-68
2021/12/05 04:52:41;;;;;;;4.70;2.63;;;3.60;99.90;;;;;;5055101;28;20690;-68
2021/12/05 04:55:09;;;;;;;2.35;2.15;;;3.60;99.90;;;;;;5053852;28;20266;-68
2021/12/05 04:57:35;;;;;;;6.07;1.77;;;3.60;99.90;;;;;;5055062;28;20200;-68
2021/12/05 05:00:25;;;;;;;4.05;1.55;;;3.70;99.90;;;;;;5054954;28;20664;-68
2021/12/05 05:02:52;;;;;;;2.70;1.52;;;3.60;99.90;;;;;;5055232;28;20199;-68
2021/12/05 05:05:19;;;;;;;8.40;2.10;;;3.70;99.90;;;;;;5054934;28;20205;-68
2021/12/05 05:07:46;;;;;;;3.28;1.60;;;3.70;99.90;;;;;;5055304;28;20587;-68
2021/12/05 05:10:26;;;;;;;10.73;5.80;;;3.70;99.90;;;;;;5055268;28;20597;-68
2021/12/05 05:12:52;;;;;;;2.92;1.85;;;3.70;99.90;;;;;;5053664;28;20197;-68
2021/12/05 05:15:23;;;;;;;8.23;3.33;;;3.70;99.90;;;;;;5054736;28;20209;-68
2021/12/05 05:17:52;;;;;;;10.30;2.17;;;3.70;99.90;;;;;;5054587;28;20632;-68
2021/12/05 05:20:25;;;;;;;13.00;1.92;;;3.70;99.90;;;;;;5054951;28;20204;-68
2021/12/05 05:26:15;;;;;;;5.30;2.60;;;3.70;99.90;;;;;;5054643;28;20200;-68
2021/12/05 05:44:58;;;;;;;3.30;2.08;;;3.60;99.90;;;;;;5054009;28;20687;-68
2021/12/05 05:47:33;;;;;;;1.40;1.30;;;3.70;99.90;;;;;;5054277;28;20213;-68
2021/12/05 05:50:00;;;;;;;6.13;1.85;;;3.60;99.90;;;;;;5052577;28;20231;-68
2021/12/05 05:52:29;;;;;;;6.07;1.70;;;3.60;99.90;;;;;;5054349;28;20725;-69
2021/12/05 05:54:58;;;;;;;8.90;2.92;;;3.60;99.90;;;;;;5053984;28;20247;-69
2021/12/05 05:57:34;;;;;;;22.55;9.23;;;3.50;99.90;;;;;;5052869;28;20239;-68
2021/12/05 06:00:10;;;;;;;7.82;2.58;;;3.50;99.90;;;;;;5054232;28;20559;-69
2021/12/05 06:05:22;;;;;;;15.95;8.35;;;3.50;99.90;;;;;;5053916;28;20644;-69
2021/12/05 06:07:48;;;;;;;14.13;6.93;;;3.40;99.90;;;;;;5054000;28;20213;-69
2021/12/05 06:10:19;;;;;;;27.20;14.48;;;3.40;99.90;;;;;;5053733;28;20660;-69
2021/12/05 06:12:45;;;;;;;12.65;5.57;;;3.40;99.90;;;;;;5054031;28;20185;-69
2021/12/05 06:15:14;;;;;;;8.60;3.30;;;3.40;99.90;;;;;;5054103;28;20254;-69
2021/12/05 06:17:41;;;;;;;4.55;2.20;;;3.50;99.90;;;;;;5054121;28;20610;-69
2021/12/05 06:20:16;;;;;;;3.72;1.85;;;3.40;99.90;;;;;;5053793;28;20269;-68
2021/12/05 06:22:46;;;;;;;12.27;3.28;;;3.40;99.90;;;;;;5052423;28;20208;-69
2021/12/05 06:25:19;;;;;;;3.92;2.10;;;3.40;99.90;;;;;;5054018;28;20200;-69
2021/12/05 06:27:48;;;;;;;10.40;3.70;;;3.40;99.90;;;;;;5053480;28;20652;-69
2021/12/05 06:30:28;;;;;;;2.50;2.30;;;3.40;99.90;;;;;;5053731;28;20325;-69
2021/12/05 06:46:33;;;;;;;4.40;1.90;;;3.10;99.90;;;;;;5059236;28;20204;-69
2021/12/05 06:49:00;;;;;;;5.07;2.03;;;3.10;99.90;;;;;;5072596;28;20204;-69
2021/12/05 06:51:29;;;;;;;3.97;2.42;;;3.10;99.90;;;;;;5073378;28;20200;-68
2021/12/05 06:53:57;;;;;;;8.25;2.25;;;3.10;99.90;;;;;;5073232;28;20220;-68
2021/12/05 06:56:24;;;;;;;5.93;2.00;;;3.10;99.90;;;;;;5072731;28;20200;-69
2021/12/05 06:58:52;;;;;;;5.50;2.42;;;3.10;99.90;;;;;;5073488;28;20211;-69
2021/12/05 07:01:18;;;;;;;6.93;3.35;;;3.10;99.90;;;;;;5072068;28;20249;-68
2021/12/05 07:03:47;;;;;;;9.48;2.13;;;3.20;99.90;;;;;;5072770;28;20211;-68
2021/12/05 07:06:29;;;;;;;4.95;1.83;;;3.20;99.90;;;;;;5071719;28;20208;-69
2021/12/05 07:09:05;;;;;;;3.80;2.80;;;3.20;99.90;;;;;;5073076;28;20609;-68
2021/12/05 07:11:40;;;;;;;8.73;2.42;;;3.20;99.90;;;;;;5073244;28;20557;-68
2021/12/05 07:14:35;;;;;;;3.80;2.63;;;3.10;99.90;;;;;;5072916;28;20195;-68
2021/12/05 07:17:08;;;;;;;5.70;2.30;;;3.10;99.90;;;;;;5073145;28;20193;-69
2021/12/05 07:19:51;;;;;;;5.80;2.60;;;3.10;99.90;;;;;;5072706;28;20211;-69
2021/12/05 07:22:23;;;;;;;7.75;2.80;;;3.00;99.90;;;;;;5072594;28;20643;-68
2021/12/05 07:24:59;;;;;;;4.88;2.78;;;3.00;99.90;;;;;;5073051;28;20655;-69
2021/12/05 07:43:41;;;;;;;4.40;2.70;;;2.90;99.90;;;;;;5072433;28;20207;-69
2021/12/05 07:46:07;;;;;;;8.43;2.65;;;2.90;99.90;;;;;;5072633;28;20639;-68
2021/12/05 07:48:37;;;;;;;6.55;3.20;;;2.90;99.90;;;;;;5072404;28;20227;-67
2021/12/05 07:51:20;;;;;;;9.15;2.80;;;3.00;99.90;;;;;;5072503;28;20285;-69
2021/12/05 07:54:11;;;;;;;7.57;3.53;;;3.00;99.90;;;;;;5072717;28;20226;-67
2021/12/05 07:59:22;;;;;;;7.40;3.42;;;3.10;99.90;;;;;;5072998;28;20199;-68
2021/12/05 08:15:47;;;;;;;7.13;3.15;;;3.30;99.90;;;;;;5076321;28;20533;-68
2021/12/05 08:18:14;;;;;;;4.15;2.17;;;3.30;99.90;;;;;;5075871;28;20203;-68
2021/12/05 08:20:44;;;;;;;5.03;2.42;;;3.30;99.90;;;;;;5076068;28;20207;-69
2021/12/05 08:23:13;;;;;;;5.40;2.60;;;3.30;99.90;;;;;;5075712;28;20207;-67
2021/12/05 08:25:43;;;;;;;5.25;2.60;;;3.40;99.90;;;;;;5076222;28;20599;-68
2021/12/05 08:28:37;;;;;;;4.38;2.08;;;3.40;99.90;;;;;;5075827;28;20627;-68
2021/12/05 08:31:18;;;;;;;5.15;2.28;;;3.50;99.90;;;;;;5075863;28;20207;-68
2021/12/05 08:45:10;;;;;;;3.22;2.13;;;3.90;99.90;;;;;;5075948;28;20252;-68
2021/12/05 09:23:46;;;;;;;10.35;2.00;;;4.20;99.90;;;;;;5074980;28;20210;-69
2021/12/05 10:01:43;;;;;;;8.23;3.00;;;4.00;99.90;;;;;;5074193;28;20220;-69
2021/12/05 10:10:18;;;;;;;3.80;1.63;;;4.10;99.90;;;;;;5074104;28;20200;-68
2021/12/05 10:13:04;;;;;;;2.30;2.10;;;4.20;99.90;;;;;;5073561;28;20208;-68
2021/12/05 10:16:09;;;;;;;3.75;1.45;;;4.30;99.90;;;;;;5072423;28;20276;-67
2021/12/05 10:37:49;;;;;;;3.55;1.77;;;4.60;99.90;;;;;;5073348;28;20391;-68
2021/12/05 10:40:30;;;;;;;5.70;2.30;;;4.60;99.90;;;;;;5073128;28;20204;-68
2021/12/05 10:42:57;;;;;;;4.57;2.03;;;4.70;99.90;;;;;;5073205;28;20200;-69
2021/12/05 10:45:31;;;;;;;2.45;2.10;;;4.70;99.90;;;;;;5073482;28;20270;-68
2021/12/05 10:48:03;;;;;;;2.85;2.28;;;4.70;99.90;;;;;;5072978;28;20227;-69
2021/12/05 10:50:41;;;;;;;4.20;2.55;;;4.80;99.90;;;;;;5073092;28;20228;-69
2021/12/05 10:53:26;;;;;;;10.40;3.13;;;4.70;99.90;;;;;;5072118;28;20227;-69
2021/12/05 10:56:03;;;;;;;2.17;1.98;;;4.80;99.90;;;;;;5073122;28;20253;-69
2021/12/05 10:58:34;;;;;;;4.57;2.47;;;4.60;99.90;;;;;;5073101;28;20191;-69
2021/12/05 11:01:06;;;;;;;8.15;3.03;;;4.60;99.90;;;;;;5073352;28;20265;-69
2021/12/05 11:03:32;;;;;;;4.00;3.05;;;4.70;99.90;;;;;;5072890;28;20241;-69
2021/12/05 11:05:59;;;;;;;3.67;2.97;;;4.80;99.90;;;;;;5071598;28;20569;-67
2021/12/05 11:08:37;;;;;;;4.80;2.85;;;5.30;99.90;;;;;;5073268;28;20580;-67
2021/12/05 11:11:13;;;;;;;9.57;2.83;;;5.40;99.90;;;;;;5073204;28;20196;-68
2021/12/05 11:13:43;;;;;;;8.35;3.20;;;5.30;99.90;;;;;;5073320;28;20196;-68
2021/12/05 11:16:39;;;;;;;4.22;2.80;;;5.50;99.90;;;;;;5073052;28;20192;-68
2021/12/05 11:19:18;;;;;;;4.60;2.85;;;5.60;99.90;;;;;;5072916;28;20208;-68
2021/12/05 11:21:47;;;;;;;3.92;2.47;;;5.50;99.90;;;;;;5073287;28;20191;-68
2021/12/05 11:24:25;;;;;;;5.95;3.20;;;5.40;99.90;;;;;;5071443;28;20204;-68
2021/12/05 11:27:06;;;;;;;5.03;2.67;;;5.50;99.90;;;;;;5072793;28;20632;-68
2021/12/05 11:29:59;;;;;;;11.15;3.88;;;5.40;99.90;;;;;;5071843;28;20211;-68
2021/12/05 11:32:43;;;;;;;2.65;2.00;;;5.40;99.90;;;;;;5073135;28;20200;-68
2021/12/05 11:35:25;;;;;;;5.93;4.32;;;5.30;99.90;;;;;;5073142;28;20180;-68
2021/12/05 11:38:03;;;;;;;6.85;2.78;;;5.30;99.90;;;;;;5073142;28;20234;-68
2021/12/05 11:40:49;;;;;;;5.35;4.38;;;5.30;99.90;;;;;;5072819;28;20204;-68
2021/12/05 11:43:20;;;;;;;8.43;4.63;;;5.20;99.90;;;;;;5074324;28;20234;-68
2021/12/05 11:46:05;;;;;;;8.07;4.72;;;5.10;99.90;;;;;;5076505;28;20196;-68
2021/12/05 11:48:39;;;;;;;6.30;3.30;;;5.10;99.90;;;;;;5076656;28;20220;-69
2021/12/05 11:51:34;;;;;;;8.85;5.43;;;5.10;99.90;;;;;;5076302;28;20334;-68
2021/12/05 11:54:21;;;;;;;4.35;2.30;;;5.20;99.90;;;;;;5076503;28;20248;-65
2021/12/05 11:57:01;;;;;;;3.22;2.38;;;5.20;99.90;;;;;;5076680;28;20548;-66
2021/12/05 11:59:45;;;;;;;3.08;2.35;;;5.20;99.90;;;;;;5076244;28;20192;-66
2021/12/05 12:02:13;;;;;;;3.42;3.03;;;5.20;99.90;;;;;;5076286;28;20241;-66
2021/12/05 12:04:51;;;;;;;2.92;2.63;;;5.10;99.90;;;;;;5076270;28;20663;-66
2021/12/05 12:07:38;;;;;;;2.20;1.92;;;5.10;99.90;;;;;;5076122;28;20189;-67
2021/12/05 12:10:07;;;;;;;1.80;1.70;;;4.40;99.90;;;;;;5076139;28;20261;-66
2021/12/05 12:12:35;;;;;;;1.38;1.15;;;3.80;99.90;;;;;;5076592;28;20207;-67
2021/12/05 12:15:03;;;;;;;2.05;1.25;;;3.50;99.90;;;;;;5076432;28;20219;-67
2021/12/05 12:17:29;;;;;;;1.90;0.90;;;3.40;99.90;;;;;;5076167;28;20196;-67
2021/12/05 12:19:56;;;;;;;1.30;1.20;;;3.50;99.90;;;;;;5076270;28;20344;-67
2021/12/05 12:22:26;;;;;;;1.80;1.27;;;3.50;99.90;;;;;;5074930;28;20207;-67
2021/12/05 12:25:00;;;;;;;5.05;1.30;;;3.60;99.90;;;;;;5076063;28;20196;-67
2021/12/05 12:27:27;;;;;;;3.30;1.80;;;3.70;99.90;;;;;;5075995;28;20180;-68
2021/12/05 12:29:57;;;;;;;3.25;1.55;;;3.80;99.90;;;;;;5076193;28;20207;-68
2021/12/05 12:32:37;;;;;;;1.30;1.20;;;3.80;99.90;;;;;;5075124;28;20195;-66
2021/12/05 12:35:10;;;;;;;1.52;1.00;;;3.80;99.90;;;;;;5076272;28;20677;-69
2021/12/05 12:38:08;;;;;;;2.70;1.10;;;3.90;99.90;;;;;;5076415;28;20188;-69
2021/12/05 12:40:59;;;;;;;1.05;1.02;;;4.00;99.90;;;;;;5076095;28;20208;-69
2021/12/05 12:44:03;;;;;;;1.70;1.13;;;4.10;99.90;;;;;;5074460;28;20188;-69
2021/12/05 12:46:34;;;;;;;1.98;1.15;;;4.50;99.90;;;;;;5053737;28;20237;-69
2021/12/05 12:49:16;;;;;;;1.80;1.23;;;5.00;99.90;;;;;;5072102;28;20234;-69
2021/12/05 12:51:44;;;;;;;1.33;1.10;;;5.60;99.90;;;;;;5075364;28;20202;-69
2021/12/05 12:54:18;;;;;;;2.35;1.48;;;6.40;99.90;;;;;;5072971;28;20220;-69
2021/12/05 12:57:06;;;;;;;1.30;1.20;;;6.90;99.90;;;;;;5075550;28;20188;-69
2021/12/05 12:59:37;;;;;;;2.10;1.90;;;6.20;99.90;;;;;;5075667;28;20210;-69
2021/12/05 13:10:30;;;;;;;2.58;1.70;;;4.90;99.90;;;;;;5075394;28;20196;-69
2021/12/05 13:13:04;;;;;;;2.05;1.70;;;4.90;99.90;;;;;;5075202;28;20621;-68
2021/12/05 13:15:34;;;;;;;1.58;1.48;;;4.90;99.90;;;;;;5075656;28;20195;-68
2021/12/05 13:18:13;;;;;;;2.25;1.88;;;4.90;99.90;;;;;;5075596;28;20196;-68
2021/12/05 13:20:42;;;;;;;2.10;1.50;;;4.80;99.90;;;;;;5074913;28;20208;-69
2021/12/05 13:23:14;;;;;;;33.03;18.13;;;4.80;99.90;;;;;;5074948;28;20196;-69
2021/12/05 13:26:03;;;;;;;51.45;25.85;;;4.80;99.90;;;;;;5075441;28;20200;-69
2021/12/05 13:28:58;;;;;;;12.25;7.90;;;4.80;99.90;;;;;;5074979;28;20216;-69
2021/12/05 13:31:27;;;;;;;6.68;5.75;;;4.80;99.90;;;;;;5074991;28;20184;-69
2021/12/05 13:34:19;;;;;;;6.65;3.60;;;4.80;99.90;;;;;;5073619;28;20226;-70
2021/12/05 13:36:59;;;;;;;5.13;3.42;;;4.70;99.90;;;;;;5074854;28;20196;-69
2021/12/05 13:39:37;;;;;;;6.88;3.25;;;4.70;99.90;;;;;;5074504;28;20210;-69
2021/12/05 13:42:08;;;;;;;2.70;2.53;;;4.80;99.90;;;;;;5074900;28;20539;-69
2021/12/05 13:44:56;;;;;;;3.05;2.35;;;4.90;99.90;;;;;;5075013;28;20249;-69
2021/12/05 13:47:29;;;;;;;2.80;2.53;;;4.90;99.90;;;;;;5074463;28;20604;-68
2021/12/05 13:49:56;;;;;;;3.15;2.50;;;4.80;99.90;;;;;;5074097;28;20232;-68
2021/12/05 13:52:36;;;;;;;6.75;3.58;;;4.70;99.90;;;;;;5074182;28;20671;-68
2021/12/05 13:55:39;;;;;;;7.43;3.45;;;4.70;99.90;;;;;;5074123;28;20224;-69
2021/12/05 13:58:15;;;;;;;2.95;2.60;;;4.60;99.90;;;;;;5065361;28;20199;-68
2021/12/05 14:01:02;;;;;;;2.83;2.63;;;4.60;99.90;;;;;;5074367;28;20204;-68
2021/12/05 14:03:49;;;;;;;2.88;2.55;;;4.70;99.90;;;;;;5070045;28;20196;-67
2021/12/05 14:06:40;;;;;;;7.55;2.10;;;4.70;99.90;;;;;;5074403;28;20195;-68
2021/12/05 14:09:17;;;;;;;4.82;2.25;;;4.60;99.90;;;;;;5072797;28;20220;-69
2021/12/05 14:12:01;;;;;;;3.50;2.55;;;4.60;99.90;;;;;;5074114;28;20655;-68
2021/12/05 14:14:43;;;;;;;2.70;2.50;;;4.60;99.90;;;;;;5074293;28;20682;-68
2021/12/05 14:17:22;;;;;;;2.80;2.50;;;4.50;99.90;;;;;;5074576;28;20192;-69
2021/12/05 14:20:14;;;;;;;2.83;2.35;;;4.70;99.90;;;;;;5074093;28;20192;-69
2021/12/05 14:22:44;;;;;;;2.33;2.00;;;4.80;99.90;;;;;;5074025;28;20214;-69
2021/12/05 14:25:17;;;;;;;4.05;2.00;;;4.90;99.90;;;;;;5072881;28;20659;-69
2021/12/05 14:27:54;;;;;;;2.45;1.75;;;5.10;99.90;;;;;;5073819;28;20590;-69
2021/12/05 14:30:23;;;;;;;3.70;2.08;;;5.10;99.90;;;;;;5072437;28;20196;-69
2021/12/05 14:32:57;;;;;;;3.28;2.97;;;5.10;99.90;;;;;;5073814;28;20282;-69
2021/12/05 14:35:36;;;;;;;3.30;3.00;;;5.10;99.90;;;;;;5073577;28;20204;-68
2021/12/05 14:38:04;;;;;;;3.20;2.90;;;5.10;99.90;;;;;;5074376;28;20208;-68
2021/12/05 14:40:32;;;;;;;6.82;3.92;;;5.00;99.90;;;;;;5073839;28;20195;-68
2021/12/05 14:43:03;;;;;;;4.10;3.67;;;5.00;99.90;;;;;;5073550;28;20192;-68
2021/12/05 14:45:35;;;;;;;5.80;3.70;;;4.90;99.90;;;;;;5073281;28;20202;-69
2021/12/05 14:48:03;;;;;;;3.25;2.40;;;4.90;99.90;;;;;;5073528;28;20196;-69
2021/12/05 14:50:32;;;;;;;2.50;2.30;;;4.80;99.90;;;;;;5071914;28;20228;-68
2021/12/05 14:53:02;;;;;;;3.00;2.55;;;4.80;99.90;;;;;;5073586;28;20206;-69
2021/12/05 14:55:32;;;;;;;3.00;2.78;;;4.70;99.90;;;;;;5073351;28;20215;-69
2021/12/05 14:58:02;;;;;;;3.05;2.50;;;4.60;99.90;;;;;;5073210;28;20640;-68
2021/12/05 15:00:35;;;;;;;2.75;2.28;;;4.60;99.90;;;;;;5073013;28;20180;-69
2021/12/05 15:03:09;;;;;;;4.15;3.75;;;4.70;99.90;;;;;;5073147;28;20180;-68
2021/12/05 15:05:38;;;;;;;4.70;3.22;;;4.60;99.90;;;;;;5073241;28;20179;-68
2021/12/05 15:08:08;;;;;;;6.43;4.88;;;4.60;99.90;;;;;;5073444;28;20525;-68
2021/12/05 15:10:35;;;;;;;6.72;4.30;;;4.70;99.90;;;;;;5073012;28;20195;-68
2021/12/05 15:13:01;;;;;;;3.53;3.22;;;4.60;99.90;;;;;;5073488;28;20200;-68
2021/12/05 15:15:28;;;;;;;12.23;9.32;;;4.50;99.90;;;;;;5073500;28;20192;-68
2021/12/05 15:17:56;;;;;;;16.77;10.65;;;4.40;99.90;;;;;;5073369;28;20195;-68
2021/12/05 15:20:27;;;;;;;24.52;19.58;;;4.40;99.90;;;;;;5073282;28;20572;-68
2021/12/05 15:23:04;;;;;;;20.35;16.70;;;4.40;99.90;;;;;;5073091;28;20203;-68
2021/12/05 15:25:32;;;;;;;12.40;8.55;;;4.40;99.90;;;;;;5071840;28;20260;-68
2021/12/05 15:27:59;;;;;;;18.23;8.70;;;4.40;99.90;;;;;;5073143;28;20195;-68
2021/12/05 15:30:29;;;;;;;12.10;9.07;;;4.40;99.90;;;;;;5073355;28;20211;-68
2021/12/05 15:32:59;;;;;;;9.80;6.72;;;4.40;99.90;;;;;;5073328;28;20575;-69
2021/12/05 15:35:28;;;;;;;8.35;7.65;;;4.40;99.90;;;;;;5072830;28;20191;-68
2021/12/05 15:38:04;;;;;;;8.73;7.60;;;4.40;99.90;;;;;;5073152;28;20204;-69
2021/12/05 15:40:33;;;;;;;13.70;11.65;;;4.40;99.90;;;;;;5073469;28;20253;-69
2021/12/05 15:43:04;;;;;;;14.75;11.93;;;4.40;99.90;;;;;;5073320;28;20200;-69
2021/12/05 15:45:31;;;;;;;17.00;12.40;;;4.40;99.90;;;;;;5072850;28;20199;-69
2021/12/05 15:47:58;;;;;;;20.77;17.73;;;4.50;99.90;;;;;;5073546;28;20206;-70
2021/12/05 15:50:27;;;;;;;15.93;12.38;;;4.50;99.90;;;;;;5072884;28;20306;-69
2021/12/05 15:52:57;;;;;;;12.85;10.95;;;4.40;99.90;;;;;;5072953;28;20200;-70
2021/12/05 15:55:26;;;;;;;12.18;10.93;;;4.40;99.90;;;;;;5073176;28;20686;-69
2021/12/05 15:58:20;;;;;;;13.95;11.15;;;4.40;99.90;;;;;;5072798;28;20632;-68
2021/12/05 16:01:05;;;;;;;15.73;11.25;;;4.30;99.90;;;;;;5071505;28;20341;-69
2021/12/05 16:03:40;;;;;;;13.55;12.02;;;4.30;99.90;;;;;;5073030;28;20195;-70
2021/12/05 16:06:08;;;;;;;15.90;9.90;;;4.30;99.90;;;;;;5072650;28;20659;-68
2021/12/05 16:08:34;;;;;;;12.95;9.05;;;4.30;99.90;;;;;;5072666;28;20224;-69
2021/12/05 16:11:02;;;;;;;14.88;8.10;;;4.30;99.90;;;;;;5071241;28;20575;-69
2021/12/05 16:13:38;;;;;;;14.80;11.10;;;4.30;99.90;;;;;;5072942;28;20597;-70
2021/12/05 16:16:17;;;;;;;21.30;11.63;;;4.10;99.90;;;;;;5071039;28;20200;-69
2021/12/05 16:18:48;;;;;;;16.95;13.57;;;4.10;99.90;;;;;;5072705;28;20199;-69
2021/12/05 16:21:19;;;;;;;19.35;14.85;;;4.00;99.90;;;;;;5072346;28;20218;-69
2021/12/05 16:23:48;;;;;;;21.83;16.00;;;4.00;99.90;;;;;;5072580;28;20204;-69
2021/12/05 16:26:20;;;;;;;26.45;19.23;;;4.00;99.90;;;;;;5071322;28;20200;-69
2021/12/05 16:28:53;;;;;;;17.40;14.68;;;4.00;99.90;;;;;;5073444;28;20231;-69
2021/12/05 16:31:24;;;;;;;21.67;17.40;;;3.90;99.90;;;;;;5075073;28;20203;-69
2021/12/05 16:33:59;;;;;;;19.35;15.63;;;3.90;99.90;;;;;;5075832;28;20699;-68
2021/12/05 16:36:46;;;;;;;23.20;16.58;;;3.90;99.90;;;;;;5076030;28;20253;-69
2021/12/05 16:39:16;;;;;;;21.52;15.20;;;3.80;99.90;;;;;;5075954;28;20596;-68
2021/12/05 16:41:46;;;;;;;18.10;13.65;;;3.80;99.90;;;;;;5075985;28;20184;-69
2021/12/05 16:44:15;;;;;;;21.80;15.50;;;3.90;99.90;;;;;;5074700;28;20210;-69
2021/12/05 16:46:50;;;;;;;21.63;17.55;;;3.90;99.90;;;;;;5075335;28;20667;-69
2021/12/05 16:49:23;;;;;;;21.92;16.73;;;4.00;99.90;;;;;;5075530;28;20570;-69
2021/12/05 16:51:56;;;;;;;21.55;16.95;;;4.00;99.90;;;;;;5075473;28;20187;-70
2021/12/05 16:54:45;;;;;;;12.13;10.18;;;3.80;99.90;;;;;;5075252;28;20220;-69
2021/12/05 16:57:22;;;;;;;15.85;11.32;;;3.60;99.90;;;;;;5069358;28;20196;-69
2021/12/05 16:59:55;;;;;;;13.18;8.77;;;3.50;99.90;;;;;;5075540;28;20203;-69
2021/12/05 17:02:34;;;;;;;12.18;8.50;;;3.50;99.90;;;;;;5075303;28;20576;-69
2021/12/05 17:05:24;;;;;;;9.15;7.90;;;3.60;99.90;;;;;;5075223;28;20196;-69
2021/12/05 17:08:13;;;;;;;10.50;9.00;;;3.60;99.90;;;;;;5073641;28;20625;-69
2021/12/05 17:10:48;;;;;;;20.33;14.57;;;3.70;99.90;;;;;;5075405;28;20226;-69
2021/12/05 17:13:20;;;;;;;17.70;14.23;;;3.70;99.90;;;;;;5075202;28;20196;-69
2021/12/05 17:15:49;;;;;;;18.75;14.95;;;3.80;99.90;;;;;;5074753;28;20199;-69
2021/12/05 17:18:44;;;;;;;17.25;13.50;;;3.90;99.90;;;;;;5074683;28;20203;-69
2021/12/05 17:21:21;;;;;;;18.55;15.38;;;4.00;99.90;;;;;;5074481;28;20203;-69
2021/12/05 17:23:56;;;;;;;20.73;15.85;;;4.00;99.90;;;;;;5074933;28;20199;-69
2021/12/05 17:26:32;;;;;;;21.52;17.05;;;4.10;99.90;;;;;;5074856;28;20199;-68
2021/12/05 17:29:19;;;;;;;24.58;18.52;;;4.10;99.90;;;;;;5074525;28;20212;-68
2021/12/05 17:32:16;;;;;;;19.90;13.70;;;4.10;99.90;;;;;;5075020;28;20520;-69
2021/12/05 17:34:56;;;;;;;25.60;15.00;;;4.10;99.90;;;;;;5064956;28;20552;-68
2021/12/05 17:37:26;;;;;;;36.85;21.83;;;4.10;99.90;;;;;;5074666;28;20188;-69
2021/12/05 17:39:54;;;;;;;29.50;21.15;;;4.10;99.90;;;;;;5073942;28;20203;-68
2021/12/05 17:42:26;;;;;;;23.75;19.27;;;4.10;99.90;;;;;;5074783;28;20207;-68
2021/12/05 17:44:59;;;;;;;26.63;18.30;;;4.10;99.90;;;;;;5074304;28;20200;-68
2021/12/05 17:47:27;;;;;;;23.67;15.60;;;4.10;99.90;;;;;;5074501;28;20188;-68
2021/12/05 17:49:56;;;;;;;21.65;11.73;;;4.10;99.90;;;;;;5073805;28;20224;-68
2021/12/05 17:52:24;;;;;;;18.00;9.77;;;4.10;99.90;;;;;;5074309;28;20200;-69
2021/12/05 17:54:59;;;;;;;11.25;9.90;;;4.00;99.90;;;;;;5073655;28;20216;-68
2021/12/05 17:57:39;;;;;;;11.10;9.63;;;4.00;99.90;;;;;;5074140;28;20195;-68
2021/12/05 18:03:13;;;;;;;14.88;12.73;;;3.90;99.90;;;;;;5061619;28;20211;-69
2021/12/05 18:05:42;;;;;;;9.68;8.68;;;3.90;99.90;;;;;;5073782;28;20273;-69
2021/12/05 18:08:14;;;;;;;30.33;17.27;;;3.80;99.90;;;;;;5074070;28;20222;-67
2021/12/05 18:10:48;;;;;;;28.60;14.63;;;3.90;99.90;;;;;;5073674;28;20204;-67
2021/12/05 18:13:15;;;;;;;15.38;10.10;;;3.90;99.90;;;;;;5073728;28;20204;-67
2021/12/05 18:15:48;;;;;;;12.73;8.80;;;3.90;99.90;;;;;;5073751;28;20210;-66
2021/12/05 18:18:16;;;;;;;9.88;8.88;;;4.00;99.90;;;;;;5072616;28;20196;-66
2021/12/05 18:20:43;;;;;;;8.88;7.22;;;3.90;99.90;;;;;;5072958;28;20200;-67
2021/12/05 18:23:10;;;;;;;7.15;5.32;;;4.00;99.90;;;;;;5072732;28;20203;-66
2021/12/05 18:25:38;;;;;;;6.25;4.47;;;3.90;99.90;;;;;;5073839;28;20204;-66
2021/12/05 18:28:06;;;;;;;6.15;4.85;;;3.80;99.90;;;;;;5073492;28;20199;-66
2021/12/05 18:30:32;;;;;;;4.40;3.97;;;3.70;99.90;;;;;;5073598;28;20733;-66
2021/12/05 18:33:01;;;;;;;5.00;3.75;;;3.60;99.90;;;;;;5073470;28;20192;-67
2021/12/05 18:35:32;;;;;;;4.15;3.85;;;3.40;99.90;;;;;;5072977;28;21076;-68
2021/12/05 18:38:07;;;;;;;4.40;4.00;;;3.20;99.90;;;;;;5072671;28;20794;-68
2021/12/05 18:40:37;;;;;;;3.53;3.30;;;3.10;99.90;;;;;;5073775;28;20577;-67
2021/12/05 18:43:05;;;;;;;4.53;4.13;;;3.00;99.90;;;;;;5073684;28;20196;-67
2021/12/05 18:45:35;;;;;;;49.13;17.75;;;3.00;99.90;;;;;;5073359;28;20686;-67